Arden, Delaware
Current Conditions -  °F | °C
As of 3:51 AM on Thursday 27 Nov 2014 (Local Time) from KILG Reporting Station
Overcast Overcast  
Wind Chill: 29°   Ceiling: 5000
Heat Index: 36°   Visibility: 10mi
Dew Point: 32°   Wind: 9mph
Humidity: 86%   Direction: 280°W
Pressure: 29.99"   Gusts: NA
Location:  39.81°N, 75.49°W
Report Text: KILG 270751Z 28008KT 10SM BKN050 OVC055 02/00 A2999 RMK AO2 SLP156 T00220000
Loading
Personal Weather Stations






























Interactive Weather Map New forecast layout! Learn more

10-Day Weather Forecast

Advertisements
Track Severe Weather on mobile